Time,TemperatureF,DewpointF,PressureIn,WindDirection,WindDirectionDegrees,WindSpeedMPH,WindSpeedGustMPH,Humidity,HourlyPrecipIn,Conditions,Clouds,dailyrainin,SoftwareType,DateUTC
2013-02-06 00:03:00,31.3,27.6,29.88,WNW,293,3.3,10.1,86,0.00,,,0.00,heavyweathercustom,2013-02-06 05:03:00,
2013-02-06 00:10:00,31.1,27.4,29.88,West,270,0.0,10.1,86,0.00,,,0.00,heavyweathercustom,2013-02-06 05:10:00,
2013-02-06 00:20:00,30.9,27.2,29.88,WNW,293,0.0,10.1,86,0.00,,,0.00,heavyweathercustom,2013-02-06 05:20:00,
2013-02-06 00:33:00,30.9,27.2,29.88,WNW,293,3.3,10.1,86,0.00,,,0.00,heavyweathercustom,2013-02-06 05:33:00,
2013-02-06 00:40:00,30.9,27.2,29.88,WNW,293,3.3,18.8,86,0.00,,,0.00,heavyweathercustom,2013-02-06 05:40:00,
2013-02-06 00:50:00,30.9,27.5,29.89,West,270,0.0,18.8,87,0.00,,,0.00,heavyweathercustom,2013-02-06 05:50:00,
2013-02-06 01:03:00,30.9,27.5,29.89,NW,315,3.3,18.8,87,0.00,,,0.00,heavyweathercustom,2013-02-06 06:03:00,
2013-02-06 01:10:00,30.9,27.5,29.88,WNW,293,3.3,27.1,87,0.00,,,0.00,heavyweathercustom,2013-02-06 06:10:00,
2013-02-06 01:20:00,30.7,27.3,29.88,WNW,293,3.3,27.1,87,0.00,,,0.00,heavyweathercustom,2013-02-06 06:20:00,
2013-02-06 01:33:00,30.9,27.5,29.89,WNW,293,0.0,27.1,87,0.00,,,0.00,heavyweathercustom,2013-02-06 06:33:00,
2013-02-06 01:40:00,30.9,27.5,29.89,WNW,293,3.3,24.6,87,0.00,,,0.00,heavyweathercustom,2013-02-06 06:40:00,
2013-02-06 01:50:00,30.9,27.5,29.89,WNW,293,0.0,24.6,87,0.00,,,0.00,heavyweathercustom,2013-02-06 06:50:00,
2013-02-06 02:03:00,30.9,27.8,29.89,WNW,293,0.0,24.6,88,0.00,,,0.00,heavyweathercustom,2013-02-06 07:03:00,
2013-02-06 02:10:00,31.1,28.0,29.89,WNW,293,3.3,3.8,88,0.00,,,0.00,heavyweathercustom,2013-02-06 07:10:00,
2013-02-06 02:20:00,31.1,28.0,29.90,WNW,293,0.0,3.8,88,0.00,,,0.00,heavyweathercustom,2013-02-06 07:20:00,
2013-02-06 02:33:00,31.3,28.2,29.90,WNW,293,0.0,3.8,88,0.00,,,0.00,heavyweathercustom,2013-02-06 07:33:00,
2013-02-06 02:40:00,31.3,28.2,29.89,WNW,293,0.0,1.7,88,0.00,,,0.00,heavyweathercustom,2013-02-06 07:40:00,
2013-02-06 02:50:00,31.3,28.2,29.89,SW,225,0.0,1.7,88,0.00,,,0.00,heavyweathercustom,2013-02-06 07:50:00,
2013-02-06 03:03:00,31.6,28.5,29.88,WNW,293,0.0,1.7,88,0.00,,,0.00,heavyweathercustom,2013-02-06 08:03:00,
2013-02-06 03:10:00,31.6,28.5,29.89,West,270,0.0,1.7,88,0.00,,,0.00,heavyweathercustom,2013-02-06 08:10:00,
2013-02-06 03:20:00,31.6,28.5,29.89,West,270,0.0,1.7,88,0.00,,,0.00,heavyweathercustom,2013-02-06 08:20:00,
2013-02-06 03:33:00,31.6,28.5,29.90,West,270,0.0,0.0,88,0.00,,,0.00,heavyweathercustom,2013-02-06 08:33:00,
2013-02-06 03:40:00,31.6,28.5,29.90,West,270,0.0,0.0,88,0.00,,,0.00,heavyweathercustom,2013-02-06 08:40:00,
2013-02-06 03:50:00,31.8,28.7,29.90,West,270,0.0,1.4,88,0.00,,,0.00,heavyweathercustom,2013-02-06 08:50:00,
2013-02-06 04:04:00,31.6,28.5,29.90,West,270,0.0,1.4,88,0.00,,,0.00,heavyweathercustom,2013-02-06 09:04:00,
2013-02-06 04:10:00,31.6,28.5,29.90,West,270,0.0,1.4,88,0.00,,,0.00,heavyweathercustom,2013-02-06 09:10:00,
2013-02-06 04:20:00,31.8,28.7,29.90,South,180,0.0,1.4,88,0.00,,,0.00,heavyweathercustom,2013-02-06 09:20:00,
2013-02-06 04:32:00,32.2,29.3,29.91,ENE,68,0.0,7.1,89,0.00,,,0.00,heavyweathercustom,2013-02-06 09:32:00,
2013-02-06 04:40:00,32.2,29.3,29.91,SSE,158,0.0,7.1,89,0.00,,,0.00,heavyweathercustom,2013-02-06 09:40:00,
2013-02-06 04:50:00,32.2,29.1,29.92,ESE,113,0.0,6.8,88,0.00,,,0.00,heavyweathercustom,2013-02-06 09:50:00,
2013-02-06 05:02:00,32.2,29.1,29.92,SE,135,0.0,6.8,88,0.00,,,0.00,heavyweathercustom,2013-02-06 10:02:00,
2013-02-06 05:10:00,32.4,29.3,29.93,SSE,158,3.3,20.7,88,0.00,,,0.00,heavyweathercustom,2013-02-06 10:10:00,
2013-02-06 05:20:00,32.4,29.0,29.93,SSE,158,0.0,20.7,87,0.00,,,0.00,heavyweathercustom,2013-02-06 10:20:00,
2013-02-06 05:32:00,32.2,28.8,29.94,WSW,248,0.0,20.7,87,0.00,,,0.00,heavyweathercustom,2013-02-06 10:32:00,
2013-02-06 05:40:00,32.2,28.5,29.95,SE,135,0.0,6.5,86,0.00,,,0.00,heavyweathercustom,2013-02-06 10:40:00,
2013-02-06 05:50:00,31.8,28.1,29.95,ESE,113,0.0,6.5,86,0.00,,,0.00,heavyweathercustom,2013-02-06 10:50:00,
2013-02-06 06:02:00,31.8,28.1,29.95,West,270,0.0,6.5,86,0.00,,,0.00,heavyweathercustom,2013-02-06 11:02:00,
2013-02-06 06:10:00,31.8,28.1,29.95,SE,135,0.0,6.5,86,0.00,,,0.00,heavyweathercustom,2013-02-06 11:10:00,
2013-02-06 06:20:00,31.8,28.1,29.96,ESE,113,0.0,6.5,86,0.00,,,0.00,heavyweathercustom,2013-02-06 11:20:00,
2013-02-06 06:33:00,31.8,27.8,29.96,West,270,0.0,6.8,85,0.00,,,0.00,heavyweathercustom,2013-02-06 11:33:00,
2013-02-06 06:40:00,32.2,28.2,29.98,SE,135,0.0,6.8,85,0.00,,,0.00,heavyweathercustom,2013-02-06 11:40:00,
2013-02-06 06:50:00,32.0,28.0,29.98,SSE,158,0.0,6.8,85,0.00,,,0.00,heavyweathercustom,2013-02-06 11:50:00,
2013-02-06 07:03:00,31.8,27.8,29.98,SE,135,0.0,7.1,85,0.00,,,0.00,heavyweathercustom,2013-02-06 12:03:00,
2013-02-06 07:10:00,31.8,27.5,29.98,ESE,113,0.0,14.4,84,0.00,,,0.00,heavyweathercustom,2013-02-06 12:10:00,
2013-02-06 07:20:00,31.8,27.5,29.99,NNW,338,0.0,14.4,84,0.00,,,0.00,heavyweathercustom,2013-02-06 12:20:00,
2013-02-06 07:33:00,31.6,27.3,30.00,ESE,113,0.0,14.4,84,0.00,,,0.00,heavyweathercustom,2013-02-06 12:33:00,
2013-02-06 07:40:00,31.8,27.2,30.00,East,90,0.0,14.4,83,0.00,,,0.00,heavyweathercustom,2013-02-06 12:40:00,
2013-02-06 08:10:00,33.1,28.2,30.02,SSW,203,0.0,6.8,82,0.00,,,0.00,heavyweathercustom,2013-02-06 13:10:00,
2013-02-06 08:20:00,33.3,28.1,30.03,South,180,0.0,6.8,81,0.00,,,0.00,heavyweathercustom,2013-02-06 13:20:00,
2013-02-06 08:32:00,33.6,28.1,30.03,ENE,68,6.8,6.8,80,0.00,,,0.00,heavyweathercustom,2013-02-06 13:32:00,
2013-02-06 08:40:00,33.3,27.8,30.03,WSW,248,0.0,17.6,80,0.00,,,0.00,heavyweathercustom,2013-02-06 13:40:00,
2013-02-06 08:50:00,33.3,27.5,30.03,NW,315,0.0,17.6,79,0.00,,,0.00,heavyweathercustom,2013-02-06 13:50:00,
2013-02-06 09:10:00,33.4,27.3,30.02,South,180,0.0,15.7,78,0.00,,,0.00,heavyweathercustom,2013-02-06 14:10:00,
2013-02-06 09:20:00,33.6,27.2,30.02,WSW,248,0.0,15.7,77,0.00,,,0.00,heavyweathercustom,2013-02-06 14:20:00,
2013-02-06 09:32:00,33.6,26.9,30.04,SE,135,3.3,15.7,76,0.00,,,0.00,heavyweathercustom,2013-02-06 14:32:00,
2013-02-06 09:40:00,34.0,26.6,30.05,WSW,248,0.0,15.7,74,0.00,,,0.00,heavyweathercustom,2013-02-06 14:40:00,
2013-02-06 09:50:00,34.2,26.5,30.06,SSW,203,0.0,9.8,73,0.00,,,0.00,heavyweathercustom,2013-02-06 14:50:00,
2013-02-06 10:03:00,34.3,26.2,30.06,SSE,158,0.0,9.8,72,0.00,,,0.00,heavyweathercustom,2013-02-06 15:03:00,
2013-02-06 10:10:00,34.3,26.2,30.07,SE,135,0.0,9.8,72,0.00,,,0.00,heavyweathercustom,2013-02-06 15:10:00,
2013-02-06 10:20:00,34.3,26.2,30.08,SW,225,0.0,11.7,72,0.00,,,0.00,heavyweathercustom,2013-02-06 15:20:00,
2013-02-06 10:33:00,34.5,26.1,30.07,West,270,0.0,11.7,71,0.00,,,0.00,heavyweathercustom,2013-02-06 15:33:00,
2013-02-06 10:40:00,34.9,26.5,30.06,South,180,0.0,11.7,71,0.00,,,0.00,heavyweathercustom,2013-02-06 15:40:00,
2013-02-06 10:50:00,35.2,26.4,30.06,ESE,113,0.0,14.4,70,0.00,,,0.00,heavyweathercustom,2013-02-06 15:50:00,
2013-02-06 11:03:00,35.4,26.3,30.06,SSW,203,0.0,14.4,69,0.00,,,0.00,heavyweathercustom,2013-02-06 16:03:00,
2013-02-06 11:10:00,35.8,26.6,30.06,ESE,113,0.0,14.4,69,0.00,,,0.00,heavyweathercustom,2013-02-06 16:10:00,
2013-02-06 11:20:00,35.8,26.6,30.06,West,270,0.0,14.4,69,0.00,,,0.00,heavyweathercustom,2013-02-06 16:20:00,
2013-02-06 11:33:00,36.3,26.8,30.06,ESE,113,6.8,14.4,68,0.00,,,0.00,heavyweathercustom,2013-02-06 16:33:00,
2013-02-06 11:40:00,36.7,26.8,30.06,SE,135,3.3,14.4,67,0.00,,,0.00,heavyweathercustom,2013-02-06 16:40:00,
2013-02-06 11:50:00,36.7,26.1,30.05,SE,135,6.8,14.4,65,0.00,,,0.00,heavyweathercustom,2013-02-06 16:50:00,
2013-02-06 12:03:00,36.9,26.2,30.06,SE,135,0.0,13.8,65,0.00,,,0.00,heavyweathercustom,2013-02-06 17:03:00,
2013-02-06 12:10:00,37.2,25.8,30.06,West,270,0.0,13.8,63,0.00,,,0.00,heavyweathercustom,2013-02-06 17:10:00,
2013-02-06 12:20:00,37.4,26.0,30.06,ESE,113,0.0,9.0,63,0.00,,,0.00,heavyweathercustom,2013-02-06 17:20:00,
2013-02-06 12:33:00,37.4,25.6,30.06,WNW,293,0.0,9.0,62,0.00,,,0.00,heavyweathercustom,2013-02-06 17:33:00,
2013-02-06 12:40:00,37.6,25.4,30.07,ESE,113,3.3,12.2,61,0.00,,,0.00,heavyweathercustom,2013-02-06 17:40:00,
2013-02-06 12:50:00,37.6,25.4,30.06,ESE,113,6.8,12.2,61,0.00,,,0.00,heavyweathercustom,2013-02-06 17:50:00,
2013-02-06 13:03:00,37.6,25.0,30.07,SSW,203,0.0,12.2,60,0.00,,,0.00,heavyweathercustom,2013-02-06 18:03:00,
2013-02-06 13:10:00,37.8,25.6,30.06,WSW,248,0.0,12.2,61,0.00,,,0.00,heavyweathercustom,2013-02-06 18:10:00,
2013-02-06 13:20:00,37.8,25.6,30.06,WNW,293,0.0,12.2,61,0.00,,,0.00,heavyweathercustom,2013-02-06 18:20:00,
2013-02-06 13:33:00,37.9,25.3,30.06,ESE,113,0.0,6.8,60,0.00,,,0.00,heavyweathercustom,2013-02-06 18:33:00,
2013-02-06 13:40:00,38.3,25.6,30.06,SE,135,0.0,27.0,60,0.00,,,0.00,heavyweathercustom,2013-02-06 18:40:00,
2013-02-06 13:50:00,38.3,25.2,30.06,SW,225,0.0,27.0,59,0.00,,,0.00,heavyweathercustom,2013-02-06 18:50:00,
2013-02-06 14:03:00,38.5,25.0,30.07,SSW,203,0.0,27.0,58,0.00,,,0.00,heavyweathercustom,2013-02-06 19:03:00,
2013-02-06 14:10:00,38.3,24.0,30.07,WSW,248,3.3,27.0,56,0.00,,,0.00,heavyweathercustom,2013-02-06 19:10:00,
2013-02-06 14:20:00,38.5,24.2,30.08,ESE,113,6.8,14.1,56,0.00,,,0.00,heavyweathercustom,2013-02-06 19:20:00,
2013-02-06 14:33:00,38.3,24.0,30.09,ESE,113,0.0,14.1,56,0.00,,,0.00,heavyweathercustom,2013-02-06 19:33:00,
2013-02-06 14:40:00,38.5,23.8,30.09,SE,135,3.3,17.6,55,0.00,,,0.00,heavyweathercustom,2013-02-06 19:40:00,
2013-02-06 14:50:00,38.7,24.4,30.09,WSW,248,3.3,17.6,56,0.00,,,0.00,heavyweathercustom,2013-02-06 19:50:00,
2013-02-06 15:03:00,38.7,23.9,30.09,South,180,0.0,17.6,55,0.00,,,0.00,heavyweathercustom,2013-02-06 20:03:00,
2013-02-06 15:10:00,38.5,23.8,30.09,South,180,6.8,13.4,55,0.00,,,0.00,heavyweathercustom,2013-02-06 20:10:00,
2013-02-06 15:20:00,38.3,23.1,30.10,SE,135,3.3,13.4,54,0.00,,,0.00,heavyweathercustom,2013-02-06 20:20:00,
2013-02-06 15:33:00,38.3,23.1,30.10,South,180,0.0,13.4,54,0.00,,,0.00,heavyweathercustom,2013-02-06 20:33:00,
2013-02-06 15:40:00,38.3,23.1,30.11,ESE,113,3.3,13.4,54,0.00,,,0.00,heavyweathercustom,2013-02-06 20:40:00,
2013-02-06 15:50:00,38.5,23.8,30.11,West,270,0.0,10.1,55,0.00,,,0.00,heavyweathercustom,2013-02-06 20:50:00,
2013-02-06 16:03:00,38.3,23.6,30.11,SSE,158,0.0,10.1,55,0.00,,,0.00,heavyweathercustom,2013-02-06 21:03:00,
2013-02-06 16:10:00,38.1,23.4,30.12,North,0,0.0,10.1,55,0.00,,,0.00,heavyweathercustom,2013-02-06 21:10:00,
2013-02-06 16:20:00,38.1,23.4,30.12,SE,135,6.8,9.5,55,0.00,,,0.00,heavyweathercustom,2013-02-06 21:20:00,
2013-02-06 16:33:00,38.1,22.9,30.13,ESE,113,6.8,9.5,54,0.00,,,0.00,heavyweathercustom,2013-02-06 21:33:00,
2013-02-06 16:40:00,37.9,22.3,30.13,NNW,338,0.0,9.5,53,0.00,,,0.00,heavyweathercustom,2013-02-06 21:40:00,
2013-02-06 16:50:00,37.8,22.7,30.14,WSW,248,0.0,9.5,54,0.00,,,0.00,heavyweathercustom,2013-02-06 21:50:00,
2013-02-06 17:03:00,37.6,22.5,30.14,ESE,113,0.0,8.7,54,0.00,,,0.00,heavyweathercustom,2013-02-06 22:03:00,
2013-02-06 17:10:00,37.4,22.3,30.14,SE,135,3.3,26.2,54,0.00,,,0.00,heavyweathercustom,2013-02-06 22:10:00,
2013-02-06 17:20:00,37.2,22.1,30.14,SW,225,0.0,26.2,54,0.00,,,0.00,heavyweathercustom,2013-02-06 22:20:00,
2013-02-06 17:33:00,37.0,21.9,30.15,SE,135,0.0,26.2,54,0.00,,,0.00,heavyweathercustom,2013-02-06 22:33:00,
2013-02-06 17:40:00,37.0,21.9,30.16,SE,135,0.0,9.0,54,0.00,,,0.00,heavyweathercustom,2013-02-06 22:40:00,
2013-02-06 17:50:00,36.9,21.8,30.16,West,270,0.0,9.0,54,0.00,,,0.00,heavyweathercustom,2013-02-06 22:50:00,
2013-02-06 18:03:00,36.9,21.4,30.18,WSW,248,0.0,9.0,53,0.00,,,0.00,heavyweathercustom,2013-02-06 23:03:00,
2013-02-06 18:10:00,36.7,20.8,30.19,SSE,158,0.0,9.0,52,0.00,,,0.00,heavyweathercustom,2013-02-06 23:10:00,
2013-02-06 18:20:00,36.7,20.8,30.19,ESE,113,0.0,11.7,52,0.00,,,0.00,heavyweathercustom,2013-02-06 23:20:00,
2013-02-06 18:32:00,36.5,20.6,30.19,ESE,113,6.8,11.7,52,0.00,,,0.00,heavyweathercustom,2013-02-06 23:32:00,
2013-02-06 18:40:00,36.5,20.1,30.20,WSW,248,0.0,22.1,51,0.00,,,0.00,heavyweathercustom,2013-02-06 23:40:00,
2013-02-06 18:50:00,36.3,19.9,30.21,West,270,0.0,22.1,51,0.00,,,0.00,heavyweathercustom,2013-02-06 23:50:00,
2013-02-06 19:03:00,36.1,20.2,30.22,SW,225,0.0,22.1,52,0.00,,,0.00,heavyweathercustom,2013-02-07 00:03:00,
2013-02-06 19:10:00,36.0,20.1,30.22,ESE,113,6.8,14.7,52,0.00,,,0.00,heavyweathercustom,2013-02-07 00:10:00,
2013-02-06 19:20:00,35.6,19.7,30.22,SE,135,0.0,14.7,52,0.00,,,0.00,heavyweathercustom,2013-02-07 00:20:00,
2013-02-06 19:40:00,35.2,18.9,30.24,SSW,203,0.0,14.4,51,0.00,,,0.00,heavyweathercustom,2013-02-07 00:40:00,
2013-02-06 19:50:00,34.9,19.1,30.24,ESE,113,3.3,14.4,52,0.00,,,0.00,heavyweathercustom,2013-02-07 00:50:00,
2013-02-06 20:03:00,34.7,18.9,30.25,SE,135,0.0,14.4,52,0.00,,,0.00,heavyweathercustom,2013-02-07 01:03:00,
2013-02-06 20:10:00,34.5,18.3,30.24,SE,135,3.3,16.7,51,0.00,,,0.00,heavyweathercustom,2013-02-07 01:10:00,
2013-02-06 20:20:00,34.3,18.1,30.25,SE,135,0.0,16.7,51,0.00,,,0.00,heavyweathercustom,2013-02-07 01:20:00,
2013-02-06 20:33:00,34.3,18.5,30.25,SE,135,3.3,16.7,52,0.00,,,0.00,heavyweathercustom,2013-02-07 01:33:00,
2013-02-06 20:40:00,34.2,18.0,30.26,SW,225,0.0,14.4,51,0.00,,,0.00,heavyweathercustom,2013-02-07 01:40:00,
2013-02-06 20:50:00,33.8,17.6,30.26,WNW,293,0.0,14.4,51,0.00,,,0.00,heavyweathercustom,2013-02-07 01:50:00,
2013-02-06 21:03:00,33.6,17.0,30.27,WNW,293,3.3,14.4,50,0.00,,,0.00,heavyweathercustom,2013-02-07 02:03:00,
2013-02-06 21:10:00,33.3,16.2,30.28,SE,135,0.0,14.4,49,0.00,,,0.00,heavyweathercustom,2013-02-07 02:10:00,
2013-02-06 21:20:00,33.1,15.6,30.28,SE,135,6.8,14.4,48,0.00,,,0.00,heavyweathercustom,2013-02-07 02:20:00,
2013-02-06 21:33:00,32.7,14.7,30.28,ESE,113,3.3,14.4,47,0.00,,,0.00,heavyweathercustom,2013-02-07 02:33:00,
2013-02-06 21:40:00,32.7,14.2,30.28,SE,135,3.3,13.8,46,0.00,,,0.00,heavyweathercustom,2013-02-07 02:40:00,
2013-02-06 21:50:00,32.4,13.5,30.29,ESE,113,6.8,13.8,45,0.00,,,0.00,heavyweathercustom,2013-02-07 02:50:00,
2013-02-06 22:03:00,32.2,13.3,30.29,SE,135,3.3,13.8,45,0.00,,,0.00,heavyweathercustom,2013-02-07 03:03:00,
2013-02-06 22:10:00,32.2,13.3,30.29,ESE,113,6.8,13.8,45,0.00,,,0.00,heavyweathercustom,2013-02-07 03:10:00,
2013-02-06 22:20:00,31.8,12.4,30.30,ESE,113,10.1,13.8,44,0.00,,,0.00,heavyweathercustom,2013-02-07 03:20:00,
2013-02-06 22:33:00,31.8,11.9,30.30,ESE,113,0.0,14.4,43,0.00,,,0.00,heavyweathercustom,2013-02-07 03:33:00,
2013-02-06 22:40:00,31.6,11.7,30.31,WSW,248,0.0,14.4,43,0.00,,,0.00,heavyweathercustom,2013-02-07 03:40:00,
2013-02-06 22:50:00,31.6,12.2,30.31,SE,135,3.3,11.7,44,0.00,,,0.00,heavyweathercustom,2013-02-07 03:50:00,
2013-02-06 23:03:00,31.3,11.4,30.31,SE,135,3.3,11.7,43,0.00,,,0.00,heavyweathercustom,2013-02-07 04:03:00,
2013-02-06 23:10:00,31.3,11.4,30.31,ESE,113,6.8,27.1,43,0.00,,,0.00,heavyweathercustom,2013-02-07 04:10:00,
2013-02-06 23:33:00,31.3,10.9,30.32,SSW,203,0.0,27.1,42,0.00,,,0.00,heavyweathercustom,2013-02-07 04:33:00,
2013-02-06 23:40:00,31.1,10.7,30.32,SE,135,0.0,27.1,42,0.00,,,0.00,heavyweathercustom,2013-02-07 04:40:00,
2013-02-06 23:50:00,30.9,10.0,30.32,WNW,293,0.0,27.1,41,0.00,,,0.00,heavyweathercustom,2013-02-07 04:50:00,